Impacts METAR Board
IDs:

KERV - Kerrville Muni, TX, US

Updated at: 0100 UTC 15 Aug 2020
Potential Impact None Slight Moderate High
Time 14/13Z 14/14Z 14/15Z 14/16Z 14/17Z 14/18Z 14/19Z 14/20Z 14/21Z 14/22Z 14/23Z 15/00Z 15/01Z
Temp74 79 82 88 92 94 97 99 102 102 102 100 97
Dewpt71 72 67 64 62 60 57 55 55 52 50 52 53
Altim30.01 30.02 30.01 30.01 30.01 30.00 29.97 29.95 29.92 29.91 29.90 29.88 29.90
VIS10 10 10 10 10 10 10 10 10 10 10 10 10
CIG-- -- -- -- -- -- -- -- -- -- -- -- --
CoverSCTCLRCLRCLRCLRCLRCLRCLRCLRCLRCLRCLRCLR
FltCatVFRVFRVFRVFRVFRVFRVFRVFRVFRVFRVFRVFRVFR
WX--------------------------
WDir170180210180170160190200180180170180160
WSpd5 7 10 9 9 6 8 8 9 8 11 8 8
WGst-- -- -- -- -- 9 -- -- 14 -- -- -- --
Raw hourly METARs
KERV 141255Z AUTO 17005KT 10SM SCT009 23/22 A3001 RMK AO2 T02330215
KERV 141355Z AUTO 18007KT 10SM CLR 26/22 A3002 RMK AO2 T02590223
KERV 141455Z AUTO 21010KT 10SM CLR 28/20 A3001 RMK AO2 T02800196
KERV 141555Z AUTO 18009KT 10SM CLR 31/18 A3001 RMK AO2 T03090175
KERV 141655Z AUTO 17009KT 10SM CLR 33/17 A3001 RMK AO2 T03310167
KERV 141755Z AUTO 16006G09KT 10SM CLR 35/16 A3000 RMK AO2 T03450157 10345 20233
KERV 141855Z AUTO 19008KT 10SM CLR 36/14 A2997 RMK AO2 T03620141
KERV 141955Z AUTO 20008KT 10SM CLR 37/13 A2995 RMK AO2 T03730127
KERV 142055Z AUTO 18009G14KT 10SM CLR 39/13 A2992 RMK AO2 T03870126
KERV 142155Z AUTO 18008KT 10SM CLR 39/11 A2991 RMK AO2 T03870111
KERV 142255Z AUTO 17011KT 10SM CLR 39/10 A2990 RMK AO2 T03870101
KERV 142355Z AUTO 18008KT 10SM CLR 38/11 A2988 RMK AO2 T03770111 10387 20345
KERV 150055Z AUTO 16008KT 10SM CLR 36/12 A2990 RMK AO2 T03600119